sensor_id;sensor_type;location;lat;lon;timestamp;temperature;humidity
6758;DHT22;3416;53.074;8.822;2023-07-24T00:00:33;19.00;99.90
6758;DHT22;3416;53.074;8.822;2023-07-24T00:03:02;19.00;99.90
6758;DHT22;3416;53.074;8.822;2023-07-24T00:05:29;18.90;99.90
6758;DHT22;3416;53.074;8.822;2023-07-24T00:07:56;18.90;99.90
6758;DHT22;3416;53.074;8.822;2023-07-24T00:10:23;18.90;99.90
6758;DHT22;3416;53.074;8.822;2023-07-24T00:12:50;18.90;99.90
6758;DHT22;3416;53.074;8.822;2023-07-24T00:15:17;18.90;99.90
6758;DHT22;3416;53.074;8.822;2023-07-24T00:17:44;18.90;99.90
6758;DHT22;3416;53.074;8.822;2023-07-24T00:20:12;18.80;99.90
6758;DHT22;3416;53.074;8.822;2023-07-24T00:22:39;18.80;99.90
6758;DHT22;3416;53.074;8.822;2023-07-24T00:25:06;18.80;99.90
6758;DHT22;3416;53.074;8.822;2023-07-24T00:27:34;18.80;99.90
6758;DHT22;3416;53.074;8.822;2023-07-24T00:30:01;18.70;99.90
6758;DHT22;3416;53.074;8.822;2023-07-24T00:32:28;18.70;99.90
6758;DHT22;3416;53.074;8.822;2023-07-24T00:34:55;18.70;99.90
6758;DHT22;3416;53.074;8.822;2023-07-24T00:37:24;18.70;99.90
6758;DHT22;3416;53.074;8.822;2023-07-24T00:39:51;18.70;99.90
6758;DHT22;3416;53.074;8.822;2023-07-24T00:42:18;18.60;99.90
6758;DHT22;3416;53.074;8.822;2023-07-24T00:44:45;18.60;99.90
6758;DHT22;3416;53.074;8.822;2023-07-24T00:47:12;18.60;99.90
6758;DHT22;3416;53.074;8.822;2023-07-24T00:49:39;18.60;99.90
6758;DHT22;3416;53.074;8.822;2023-07-24T00:52:08;18.60;99.90
6758;DHT22;3416;53.074;8.822;2023-07-24T00:54:36;18.70;99.90
6758;DHT22;3416;53.074;8.822;2023-07-24T00:57:06;18.70;99.90
6758;DHT22;3416;53.074;8.822;2023-07-24T00:59:33;18.80;99.90
6758;DHT22;3416;53.074;8.822;2023-07-24T01:02:00;18.80;99.90
6758;DHT22;3416;53.074;8.822;2023-07-24T01:04:27;18.80;99.90
6758;DHT22;3416;53.074;8.822;2023-07-24T01:06:55;18.90;99.90
6758;DHT22;3416;53.074;8.822;2023-07-24T01:09:24;18.90;99.90
6758;DHT22;3416;53.074;8.822;2023-07-24T01:11:56;18.90;99.90
6758;DHT22;3416;53.074;8.822;2023-07-24T01:14:28;18.90;99.90
6758;DHT22;3416;53.074;8.822;2023-07-24T01:16:59;18.80;99.90
6758;DHT22;3416;53.074;8.822;2023-07-24T01:19:35;18.90;99.90
6758;DHT22;3416;53.074;8.822;2023-07-24T01:22:12;18.90;99.90
6758;DHT22;3416;53.074;8.822;2023-07-24T01:25:00;18.90;99.90
6758;DHT22;3416;53.074;8.822;2023-07-24T01:27:29;18.90;99.90
6758;DHT22;3416;53.074;8.822;2023-07-24T01:29:55;18.90;99.90
6758;DHT22;3416;53.074;8.822;2023-07-24T01:32:22;18.80;99.90
6758;DHT22;3416;53.074;8.822;2023-07-24T01:34:51;18.80;99.90
6758;DHT22;3416;53.074;8.822;2023-07-24T01:37:20;18.80;99.90
6758;DHT22;3416;53.074;8.822;2023-07-24T01:39:48;18.70;99.90
6758;DHT22;3416;53.074;8.822;2023-07-24T01:42:15;18.70;99.90
6758;DHT22;3416;53.074;8.822;2023-07-24T01:44:43;18.60;99.90
6758;DHT22;3416;53.074;8.822;2023-07-24T01:47:10;18.60;99.90
6758;DHT22;3416;53.074;8.822;2023-07-24T01:49:37;18.60;99.90
6758;DHT22;3416;53.074;8.822;2023-07-24T01:52:05;18.50;99.90
6758;DHT22;3416;53.074;8.822;2023-07-24T01:54:32;18.50;99.90
6758;DHT22;3416;53.074;8.822;2023-07-24T01:56:58;18.40;99.90
6758;DHT22;3416;53.074;8.822;2023-07-24T01:59:25;18.40;99.90
6758;DHT22;3416;53.074;8.822;2023-07-24T02:01:54;18.50;99.90
6758;DHT22;3416;53.074;8.822;2023-07-24T02:04:21;18.50;99.90
6758;DHT22;3416;53.074;8.822;2023-07-24T02:06:47;18.50;99.90
6758;DHT22;3416;53.074;8.822;2023-07-24T02:09:15;18.60;99.90
6758;DHT22;3416;53.074;8.822;2023-07-24T02:11:42;18.60;99.90
6758;DHT22;3416;53.074;8.822;2023-07-24T02:14:11;18.60;99.90
6758;DHT22;3416;53.074;8.822;2023-07-24T02:16:38;18.60;99.90
6758;DHT22;3416;53.074;8.822;2023-07-24T02:19:07;18.60;99.90
6758;DHT22;3416;53.074;8.822;2023-07-24T02:21:37;18.70;99.90
6758;DHT22;3416;53.074;8.822;2023-07-24T02:24:06;18.70;99.90
6758;DHT22;3416;53.074;8.822;2023-07-24T02:26:33;18.80;99.90
6758;DHT22;3416;53.074;8.822;2023-07-24T02:29:00;18.70;99.90
6758;DHT22;3416;53.074;8.822;2023-07-24T02:31:27;18.80;99.90
6758;DHT22;3416;53.074;8.822;2023-07-24T02:33:54;18.80;99.90
6758;DHT22;3416;53.074;8.822;2023-07-24T02:36:23;18.70;99.90
6758;DHT22;3416;53.074;8.822;2023-07-24T02:38:51;18.80;99.90
6758;DHT22;3416;53.074;8.822;2023-07-24T02:41:18;18.80;99.90
6758;DHT22;3416;53.074;8.822;2023-07-24T02:43:45;18.70;99.90
6758;DHT22;3416;53.074;8.822;2023-07-24T02:46:12;18.70;99.90
6758;DHT22;3416;53.074;8.822;2023-07-24T02:48:39;18.70;99.90
6758;DHT22;3416;53.074;8.822;2023-07-24T02:51:06;18.70;99.90
6758;DHT22;3416;53.074;8.822;2023-07-24T02:53:35;18.60;99.90
6758;DHT22;3416;53.074;8.822;2023-07-24T02:56:02;18.60;99.90
6758;DHT22;3416;53.074;8.822;2023-07-24T02:58:28;18.50;99.90
6758;DHT22;3416;53.074;8.822;2023-07-24T03:01:02;18.50;99.90
6758;DHT22;3416;53.074;8.822;2023-07-24T03:03:29;18.40;99.90
6758;DHT22;3416;53.074;8.822;2023-07-24T03:05:56;18.30;99.90
6758;DHT22;3416;53.074;8.822;2023-07-24T03:08:23;18.30;99.90
6758;DHT22;3416;53.074;8.822;2023-07-24T03:10:51;18.20;99.90
6758;DHT22;3416;53.074;8.822;2023-07-24T03:13:18;18.20;99.90
6758;DHT22;3416;53.074;8.822;2023-07-24T03:15:51;18.20;99.90
6758;DHT22;3416;53.074;8.822;2023-07-24T03:18:18;18.20;99.90
6758;DHT22;3416;53.074;8.822;2023-07-24T03:20:45;18.20;99.90
6758;DHT22;3416;53.074;8.822;2023-07-24T03:23:13;18.20;99.90
6758;DHT22;3416;53.074;8.822;2023-07-24T03:25:40;18.20;99.90
6758;DHT22;3416;53.074;8.822;2023-07-24T03:28:08;18.20;99.90
6758;DHT22;3416;53.074;8.822;2023-07-24T03:30:35;18.30;99.90
6758;DHT22;3416;53.074;8.822;2023-07-24T03:33:02;18.30;99.90
6758;DHT22;3416;53.074;8.822;2023-07-24T03:35:29;18.30;99.90
6758;DHT22;3416;53.074;8.822;2023-07-24T03:37:56;18.30;99.90
6758;DHT22;3416;53.074;8.822;2023-07-24T03:40:23;18.40;99.90
6758;DHT22;3416;53.074;8.822;2023-07-24T03:42:51;18.40;99.90
6758;DHT22;3416;53.074;8.822;2023-07-24T03:45:19;18.40;99.90
6758;DHT22;3416;53.074;8.822;2023-07-24T03:47:47;18.40;99.90
6758;DHT22;3416;53.074;8.822;2023-07-24T03:50:14;18.40;99.90
6758;DHT22;3416;53.074;8.822;2023-07-24T03:52:41;18.40;99.90
6758;DHT22;3416;53.074;8.822;2023-07-24T03:55:08;18.50;99.90
6758;DHT22;3416;53.074;8.822;2023-07-24T03:57:42;18.60;99.90
6758;DHT22;3416;53.074;8.822;2023-07-24T04:00:09;18.60;99.90
6758;DHT22;3416;53.074;8.822;2023-07-24T04:02:38;18.60;99.90
6758;DHT22;3416;53.074;8.822;2023-07-24T04:05:06;18.60;99.90
6758;DHT22;3416;53.074;8.822;2023-07-24T04:07:32;18.70;99.90
6758;DHT22;3416;53.074;8.822;2023-07-24T04:10:00;18.70;99.90
6758;DHT22;3416;53.074;8.822;2023-07-24T04:12:28;18.70;99.90
6758;DHT22;3416;53.074;8.822;2023-07-24T04:14:55;18.70;99.90
6758;DHT22;3416;53.074;8.822;2023-07-24T04:17:23;18.70;99.90
6758;DHT22;3416;53.074;8.822;2023-07-24T04:19:51;18.70;99.90
6758;DHT22;3416;53.074;8.822;2023-07-24T04:22:18;18.80;99.90
6758;DHT22;3416;53.074;8.822;2023-07-24T04:24:46;18.90;99.90
6758;DHT22;3416;53.074;8.822;2023-07-24T04:27:13;18.90;99.90
6758;DHT22;3416;53.074;8.822;2023-07-24T04:29:40;18.80;99.90
6758;DHT22;3416;53.074;8.822;2023-07-24T04:32:08;18.80;99.90
6758;DHT22;3416;53.074;8.822;2023-07-24T04:34:35;18.80;99.90
6758;DHT22;3416;53.074;8.822;2023-07-24T04:37:04;18.80;99.90
6758;DHT22;3416;53.074;8.822;2023-07-24T04:39:30;18.90;99.90
6758;DHT22;3416;53.074;8.822;2023-07-24T04:41:59;19.00;99.90
6758;DHT22;3416;53.074;8.822;2023-07-24T04:44:26;19.10;99.90
6758;DHT22;3416;53.074;8.822;2023-07-24T04:46:53;19.10;99.90
6758;DHT22;3416;53.074;8.822;2023-07-24T04:49:21;19.30;99.90
6758;DHT22;3416;53.074;8.822;2023-07-24T04:51:48;19.40;99.90
6758;DHT22;3416;53.074;8.822;2023-07-24T04:54:16;19.60;99.90
6758;DHT22;3416;53.074;8.822;2023-07-24T04:56:43;19.60;99.90
6758;DHT22;3416;53.074;8.822;2023-07-24T04:59:10;19.70;99.90
6758;DHT22;3416;53.074;8.822;2023-07-24T05:01:37;19.80;99.90
6758;DHT22;3416;53.074;8.822;2023-07-24T05:04:03;19.80;99.90
6758;DHT22;3416;53.074;8.822;2023-07-24T05:06:32;19.70;99.90
6758;DHT22;3416;53.074;8.822;2023-07-24T05:09:00;19.60;99.90
6758;DHT22;3416;53.074;8.822;2023-07-24T05:11:29;19.60;99.90
6758;DHT22;3416;53.074;8.822;2023-07-24T05:13:56;19.40;99.90
6758;DHT22;3416;53.074;8.822;2023-07-24T05:16:23;19.50;99.90
6758;DHT22;3416;53.074;8.822;2023-07-24T05:18:50;19.50;99.90
6758;DHT22;3416;53.074;8.822;2023-07-24T05:21:16;19.50;99.90
6758;DHT22;3416;53.074;8.822;2023-07-24T05:23:43;19.60;99.90
6758;DHT22;3416;53.074;8.822;2023-07-24T05:26:10;19.70;99.90
6758;DHT22;3416;53.074;8.822;2023-07-24T05:28:39;19.70;99.90
6758;DHT22;3416;53.074;8.822;2023-07-24T05:31:06;19.50;99.90
6758;DHT22;3416;53.074;8.822;2023-07-24T05:33:33;19.50;99.90
6758;DHT22;3416;53.074;8.822;2023-07-24T05:36:01;19.50;99.90
6758;DHT22;3416;53.074;8.822;2023-07-24T05:38:28;19.50;99.90
6758;DHT22;3416;53.074;8.822;2023-07-24T05:40:56;19.50;99.90
6758;DHT22;3416;53.074;8.822;2023-07-24T05:43:22;19.60;99.90
6758;DHT22;3416;53.074;8.822;2023-07-24T05:45:51;19.60;99.90
6758;DHT22;3416;53.074;8.822;2023-07-24T05:48:19;19.70;99.90
6758;DHT22;3416;53.074;8.822;2023-07-24T05:50:57;19.70;99.90
6758;DHT22;3416;53.074;8.822;2023-07-24T05:53:24;19.70;99.90
6758;DHT22;3416;53.074;8.822;2023-07-24T05:55:57;19.90;99.90
6758;DHT22;3416;53.074;8.822;2023-07-24T05:58:24;19.90;99.90
6758;DHT22;3416;53.074;8.822;2023-07-24T06:00:53;20.00;99.90
6758;DHT22;3416;53.074;8.822;2023-07-24T06:03:20;20.00;99.90
6758;DHT22;3416;53.074;8.822;2023-07-24T06:05:50;19.80;99.90
6758;DHT22;3416;53.074;8.822;2023-07-24T06:08:17;19.70;99.90
6758;DHT22;3416;53.074;8.822;2023-07-24T06:10:46;19.70;99.90
6758;DHT22;3416;53.074;8.822;2023-07-24T06:13:14;19.60;99.90
6758;DHT22;3416;53.074;8.822;2023-07-24T06:15:41;19.50;99.90
6758;DHT22;3416;53.074;8.822;2023-07-24T06:18:09;19.60;99.90
6758;DHT22;3416;53.074;8.822;2023-07-24T06:20:36;19.60;99.90
6758;DHT22;3416;53.074;8.822;2023-07-24T06:23:03;19.60;99.90
6758;DHT22;3416;53.074;8.822;2023-07-24T06:25:30;19.60;99.90
6758;DHT22;3416;53.074;8.822;2023-07-24T06:27:57;19.70;99.90
6758;DHT22;3416;53.074;8.822;2023-07-24T06:30:24;19.80;99.90
6758;DHT22;3416;53.074;8.822;2023-07-24T06:32:51;19.90;99.90
6758;DHT22;3416;53.074;8.822;2023-07-24T06:35:20;19.90;99.90
6758;DHT22;3416;53.074;8.822;2023-07-24T06:37:47;19.80;99.90
6758;DHT22;3416;53.074;8.822;2023-07-24T06:40:14;19.80;99.90
6758;DHT22;3416;53.074;8.822;2023-07-24T06:42:41;19.80;99.90
6758;DHT22;3416;53.074;8.822;2023-07-24T06:45:08;19.80;99.90
6758;DHT22;3416;53.074;8.822;2023-07-24T06:47:36;19.80;99.90
6758;DHT22;3416;53.074;8.822;2023-07-24T06:50:03;19.80;99.90
6758;DHT22;3416;53.074;8.822;2023-07-24T06:52:33;19.90;99.90
6758;DHT22;3416;53.074;8.822;2023-07-24T06:54:59;19.90;99.90
6758;DHT22;3416;53.074;8.822;2023-07-24T06:57:26;19.90;99.90
6758;DHT22;3416;53.074;8.822;2023-07-24T06:59:53;20.00;99.90
6758;DHT22;3416;53.074;8.822;2023-07-24T07:02:20;19.90;99.90
6758;DHT22;3416;53.074;8.822;2023-07-24T07:04:47;19.80;99.90
6758;DHT22;3416;53.074;8.822;2023-07-24T07:07:15;19.80;99.90
6758;DHT22;3416;53.074;8.822;2023-07-24T07:09:43;19.70;99.90
6758;DHT22;3416;53.074;8.822;2023-07-24T07:12:10;19.80;99.90
6758;DHT22;3416;53.074;8.822;2023-07-24T07:14:37;19.70;99.90
6758;DHT22;3416;53.074;8.822;2023-07-24T07:17:04;19.70;99.90
6758;DHT22;3416;53.074;8.822;2023-07-24T07:19:31;19.80;99.90
6758;DHT22;3416;53.074;8.822;2023-07-24T07:21:58;19.90;99.90
6758;DHT22;3416;53.074;8.822;2023-07-24T07:24:25;19.90;99.90
6758;DHT22;3416;53.074;8.822;2023-07-24T07:26:53;20.00;99.90
6758;DHT22;3416;53.074;8.822;2023-07-24T07:29:20;20.00;99.90
6758;DHT22;3416;53.074;8.822;2023-07-24T07:31:47;19.80;99.90
6758;DHT22;3416;53.074;8.822;2023-07-24T07:34:14;19.80;99.90
6758;DHT22;3416;53.074;8.822;2023-07-24T07:36:41;19.90;99.90
6758;DHT22;3416;53.074;8.822;2023-07-24T07:39:08;19.90;99.90
6758;DHT22;3416;53.074;8.822;2023-07-24T07:41:35;19.80;99.90
6758;DHT22;3416;53.074;8.822;2023-07-24T07:44:03;19.90;99.90
6758;DHT22;3416;53.074;8.822;2023-07-24T07:46:30;19.90;99.90
6758;DHT22;3416;53.074;8.822;2023-07-24T07:48:57;19.90;99.90
6758;DHT22;3416;53.074;8.822;2023-07-24T07:51:24;20.00;99.90
6758;DHT22;3416;53.074;8.822;2023-07-24T07:53:52;20.10;99.90
6758;DHT22;3416;53.074;8.822;2023-07-24T07:56:19;20.10;99.90
6758;DHT22;3416;53.074;8.822;2023-07-24T07:58:46;20.20;99.90
6758;DHT22;3416;53.074;8.822;2023-07-24T08:01:16;20.50;99.90
6758;DHT22;3416;53.074;8.822;2023-07-24T08:03:42;20.70;99.90
6758;DHT22;3416;53.074;8.822;2023-07-24T08:06:10;21.00;99.90
6758;DHT22;3416;53.074;8.822;2023-07-24T08:08:37;21.10;99.90
6758;DHT22;3416;53.074;8.822;2023-07-24T08:11:05;21.10;99.90
6758;DHT22;3416;53.074;8.822;2023-07-24T08:13:32;21.10;99.90
6758;DHT22;3416;53.074;8.822;2023-07-24T08:16:00;21.10;99.90
6758;DHT22;3416;53.074;8.822;2023-07-24T08:18:30;21.20;99.90
6758;DHT22;3416;53.074;8.822;2023-07-24T08:20:57;21.10;99.90
6758;DHT22;3416;53.074;8.822;2023-07-24T08:23:23;21.10;99.90
6758;DHT22;3416;53.074;8.822;2023-07-24T08:25:51;21.20;99.90
6758;DHT22;3416;53.074;8.822;2023-07-24T08:28:18;21.30;99.90
6758;DHT22;3416;53.074;8.822;2023-07-24T08:30:45;21.30;99.90
6758;DHT22;3416;53.074;8.822;2023-07-24T08:33:13;21.30;99.90
6758;DHT22;3416;53.074;8.822;2023-07-24T08:35:41;21.30;99.90
6758;DHT22;3416;53.074;8.822;2023-07-24T08:38:08;21.30;99.90
6758;DHT22;3416;53.074;8.822;2023-07-24T08:40:35;21.40;99.90
6758;DHT22;3416;53.074;8.822;2023-07-24T08:43:03;21.50;99.90
6758;DHT22;3416;53.074;8.822;2023-07-24T08:45:31;21.50;99.90
6758;DHT22;3416;53.074;8.822;2023-07-24T08:47:59;21.20;99.90
6758;DHT22;3416;53.074;8.822;2023-07-24T08:50:27;21.10;99.90
6758;DHT22;3416;53.074;8.822;2023-07-24T08:52:56;21.10;99.90
6758;DHT22;3416;53.074;8.822;2023-07-24T08:55:24;21.20;99.90
6758;DHT22;3416;53.074;8.822;2023-07-24T08:57:52;21.30;99.90
6758;DHT22;3416;53.074;8.822;2023-07-24T09:00:19;21.50;99.90
6758;DHT22;3416;53.074;8.822;2023-07-24T09:02:46;21.70;99.90
6758;DHT22;3416;53.074;8.822;2023-07-24T09:05:13;21.90;99.90
6758;DHT22;3416;53.074;8.822;2023-07-24T09:07:41;21.70;99.90
6758;DHT22;3416;53.074;8.822;2023-07-24T09:10:10;21.60;99.90
6758;DHT22;3416;53.074;8.822;2023-07-24T09:12:37;21.60;99.90
6758;DHT22;3416;53.074;8.822;2023-07-24T09:15:05;21.60;99.90
6758;DHT22;3416;53.074;8.822;2023-07-24T09:17:35;21.60;99.90
6758;DHT22;3416;53.074;8.822;2023-07-24T09:20:03;21.50;99.90
6758;DHT22;3416;53.074;8.822;2023-07-24T09:22:30;21.60;99.90
6758;DHT22;3416;53.074;8.822;2023-07-24T09:24:58;21.70;99.90
6758;DHT22;3416;53.074;8.822;2023-07-24T09:27:28;21.70;99.90
6758;DHT22;3416;53.074;8.822;2023-07-24T09:29:56;21.60;99.90
6758;DHT22;3416;53.074;8.822;2023-07-24T09:32:26;21.40;99.90
6758;DHT22;3416;53.074;8.822;2023-07-24T09:34:54;21.50;99.90
6758;DHT22;3416;53.074;8.822;2023-07-24T09:37:25;21.60;99.90
6758;DHT22;3416;53.074;8.822;2023-07-24T09:39:53;21.70;99.90
6758;DHT22;3416;53.074;8.822;2023-07-24T09:42:29;22.10;99.90
6758;DHT22;3416;53.074;8.822;2023-07-24T09:44:56;22.40;99.90
6758;DHT22;3416;53.074;8.822;2023-07-24T09:47:23;22.90;99.90
6758;DHT22;3416;53.074;8.822;2023-07-24T09:49:51;23.80;99.90
6758;DHT22;3416;53.074;8.822;2023-07-24T09:52:19;24.40;99.90
6758;DHT22;3416;53.074;8.822;2023-07-24T09:54:54;25.30;99.90
6758;DHT22;3416;53.074;8.822;2023-07-24T09:57:23;25.50;99.90
6758;DHT22;3416;53.074;8.822;2023-07-24T09:59:53;25.70;99.90
6758;DHT22;3416;53.074;8.822;2023-07-24T10:02:21;26.30;99.90
6758;DHT22;3416;53.074;8.822;2023-07-24T10:04:49;27.00;99.90
6758;DHT22;3416;53.074;8.822;2023-07-24T10:07:22;27.30;99.90
6758;DHT22;3416;53.074;8.822;2023-07-24T10:09:50;27.30;99.90
6758;DHT22;3416;53.074;8.822;2023-07-24T10:12:18;27.90;99.90
6758;DHT22;3416;53.074;8.822;2023-07-24T10:14:46;28.20;99.90
6758;DHT22;3416;53.074;8.822;2023-07-24T10:17:14;28.20;99.10
6758;DHT22;3416;53.074;8.822;2023-07-24T10:19:50;27.50;99.90
6758;DHT22;3416;53.074;8.822;2023-07-24T10:22:18;27.40;99.40
6758;DHT22;3416;53.074;8.822;2023-07-24T10:24:45;27.70;99.30
6758;DHT22;3416;53.074;8.822;2023-07-24T10:27:13;27.50;97.30
6758;DHT22;3416;53.074;8.822;2023-07-24T10:29:39;27.30;99.60
6758;DHT22;3416;53.074;8.822;2023-07-24T10:32:18;27.80;99.40
6758;DHT22;3416;53.074;8.822;2023-07-24T10:34:44;28.10;98.50
6758;DHT22;3416;53.074;8.822;2023-07-24T10:37:11;28.00;97.80
6758;DHT22;3416;53.074;8.822;2023-07-24T10:39:39;27.90;96.40
6758;DHT22;3416;53.074;8.822;2023-07-24T10:42:08;27.60;96.30
6758;DHT22;3416;53.074;8.822;2023-07-24T10:44:35;27.30;97.50
6758;DHT22;3416;53.074;8.822;2023-07-24T10:47:04;27.00;98.30
6758;DHT22;3416;53.074;8.822;2023-07-24T10:49:33;27.00;99.10
6758;DHT22;3416;53.074;8.822;2023-07-24T10:52:00;27.00;98.60
6758;DHT22;3416;53.074;8.822;2023-07-24T10:54:27;26.70;97.40
6758;DHT22;3416;53.074;8.822;2023-07-24T10:57:00;26.30;98.20
6758;DHT22;3416;53.074;8.822;2023-07-24T10:59:37;26.20;99.30
6758;DHT22;3416;53.074;8.822;2023-07-24T11:02:04;26.20;98.70
6758;DHT22;3416;53.074;8.822;2023-07-24T11:04:33;26.20;98.80
6758;DHT22;3416;53.074;8.822;2023-07-24T11:07:01;26.30;98.90
6758;DHT22;3416;53.074;8.822;2023-07-24T11:09:35;26.30;97.40
6758;DHT22;3416;53.074;8.822;2023-07-24T11:12:10;26.30;98.10
6758;DHT22;3416;53.074;8.822;2023-07-24T11:14:47;26.10;97.30
6758;DHT22;3416;53.074;8.822;2023-07-24T11:17:14;25.50;97.70
6758;DHT22;3416;53.074;8.822;2023-07-24T11:19:42;25.40;97.60
6758;DHT22;3416;53.074;8.822;2023-07-24T11:22:09;25.60;98.70
6758;DHT22;3416;53.074;8.822;2023-07-24T11:24:42;25.90;97.40
6758;DHT22;3416;53.074;8.822;2023-07-24T11:27:12;26.30;96.90
6758;DHT22;3416;53.074;8.822;2023-07-24T11:29:39;26.40;95.80
6758;DHT22;3416;53.074;8.822;2023-07-24T11:32:07;26.20;95.40
6758;DHT22;3416;53.074;8.822;2023-07-24T11:34:34;26.10;96.20
6758;DHT22;3416;53.074;8.822;2023-07-24T11:37:04;26.20;95.90
6758;DHT22;3416;53.074;8.822;2023-07-24T11:39:31;26.10;95.70
6758;DHT22;3416;53.074;8.822;2023-07-24T11:42:00;26.00;95.40
6758;DHT22;3416;53.074;8.822;2023-07-24T11:44:28;26.00;96.10
6758;DHT22;3416;53.074;8.822;2023-07-24T11:47:02;26.30;95.90
6758;DHT22;3416;53.074;8.822;2023-07-24T11:49:29;25.90;95.20
6758;DHT22;3416;53.074;8.822;2023-07-24T11:52:03;25.70;96.50
6758;DHT22;3416;53.074;8.822;2023-07-24T11:54:30;25.80;97.10
6758;DHT22;3416;53.074;8.822;2023-07-24T11:56:57;25.80;97.00
6758;DHT22;3416;53.074;8.822;2023-07-24T11:59:24;26.10;96.30
6758;DHT22;3416;53.074;8.822;2023-07-24T12:01:51;26.00;95.70
6758;DHT22;3416;53.074;8.822;2023-07-24T12:04:21;26.30;95.90
6758;DHT22;3416;53.074;8.822;2023-07-24T12:06:48;26.40;95.60
6758;DHT22;3416;53.074;8.822;2023-07-24T12:09:16;26.50;95.60
6758;DHT22;3416;53.074;8.822;2023-07-24T12:11:44;26.40;95.40
6758;DHT22;3416;53.074;8.822;2023-07-24T12:14:13;26.30;95.60
6758;DHT22;3416;53.074;8.822;2023-07-24T12:16:40;26.20;95.60
6758;DHT22;3416;53.074;8.822;2023-07-24T12:19:07;26.20;95.90
6758;DHT22;3416;53.074;8.822;2023-07-24T12:21:34;25.90;95.70
6758;DHT22;3416;53.074;8.822;2023-07-24T12:24:01;25.60;95.70
6758;DHT22;3416;53.074;8.822;2023-07-24T12:26:29;25.60;96.90
6758;DHT22;3416;53.074;8.822;2023-07-24T12:28:56;25.50;97.10
6758;DHT22;3416;53.074;8.822;2023-07-24T12:31:25;25.40;97.70
6758;DHT22;3416;53.074;8.822;2023-07-24T12:33:52;25.50;98.00
6758;DHT22;3416;53.074;8.822;2023-07-24T12:36:19;25.60;97.60
6758;DHT22;3416;53.074;8.822;2023-07-24T12:38:46;25.80;97.50
6758;DHT22;3416;53.074;8.822;2023-07-24T12:41:14;25.80;96.40
6758;DHT22;3416;53.074;8.822;2023-07-24T12:43:43;25.70;96.60
6758;DHT22;3416;53.074;8.822;2023-07-24T12:46:10;25.60;96.70
6758;DHT22;3416;53.074;8.822;2023-07-24T12:48:37;25.50;97.10
6758;DHT22;3416;53.074;8.822;2023-07-24T12:51:04;25.60;96.80
6758;DHT22;3416;53.074;8.822;2023-07-24T12:53:31;25.60;96.40
6758;DHT22;3416;53.074;8.822;2023-07-24T12:55:58;25.80;96.70
6758;DHT22;3416;53.074;8.822;2023-07-24T12:58:25;26.10;95.90
6758;DHT22;3416;53.074;8.822;2023-07-24T13:00:53;26.10;94.60
6758;DHT22;3416;53.074;8.822;2023-07-24T13:03:20;26.10;95.40
6758;DHT22;3416;53.074;8.822;2023-07-24T13:05:47;26.10;95.50
6758;DHT22;3416;53.074;8.822;2023-07-24T13:08:14;26.00;96.00
6758;DHT22;3416;53.074;8.822;2023-07-24T13:10:41;26.00;96.00
6758;DHT22;3416;53.074;8.822;2023-07-24T13:13:08;26.00;96.10
6758;DHT22;3416;53.074;8.822;2023-07-24T13:15:35;26.30;95.80
6758;DHT22;3416;53.074;8.822;2023-07-24T13:18:03;26.40;95.70
6758;DHT22;3416;53.074;8.822;2023-07-24T13:20:30;26.20;95.40
6758;DHT22;3416;53.074;8.822;2023-07-24T13:22:57;26.20;95.90
6758;DHT22;3416;53.074;8.822;2023-07-24T13:25:24;26.00;95.70
6758;DHT22;3416;53.074;8.822;2023-07-24T13:27:51;25.60;96.30
6758;DHT22;3416;53.074;8.822;2023-07-24T13:30:18;25.10;96.90
6758;DHT22;3416;53.074;8.822;2023-07-24T13:32:45;24.70;97.70
6758;DHT22;3416;53.074;8.822;2023-07-24T13:35:13;24.70;98.90
6758;DHT22;3416;53.074;8.822;2023-07-24T13:37:41;24.80;99.50
6758;DHT22;3416;53.074;8.822;2023-07-24T13:40:08;24.70;98.50
6758;DHT22;3416;53.074;8.822;2023-07-24T13:42:35;24.70;98.00
6758;DHT22;3416;53.074;8.822;2023-07-24T13:45:03;24.70;98.40
6758;DHT22;3416;53.074;8.822;2023-07-24T13:47:30;24.80;98.20
6758;DHT22;3416;53.074;8.822;2023-07-24T13:49:57;25.00;98.30
6758;DHT22;3416;53.074;8.822;2023-07-24T13:52:28;25.20;97.70
6758;DHT22;3416;53.074;8.822;2023-07-24T13:54:54;25.20;97.40
6758;DHT22;3416;53.074;8.822;2023-07-24T13:57:21;25.30;97.30
6758;DHT22;3416;53.074;8.822;2023-07-24T13:59:48;25.30;97.10
6758;DHT22;3416;53.074;8.822;2023-07-24T14:02:17;25.40;96.90
6758;DHT22;3416;53.074;8.822;2023-07-24T14:04:51;25.30;97.10
6758;DHT22;3416;53.074;8.822;2023-07-24T14:07:18;24.90;97.30
6758;DHT22;3416;53.074;8.822;2023-07-24T14:09:47;25.00;97.50
6758;DHT22;3416;53.074;8.822;2023-07-24T14:12:14;24.80;97.90
6758;DHT22;3416;53.074;8.822;2023-07-24T14:14:41;25.00;98.30
6758;DHT22;3416;53.074;8.822;2023-07-24T14:17:08;25.00;98.20
6758;DHT22;3416;53.074;8.822;2023-07-24T14:19:35;24.90;98.40
6758;DHT22;3416;53.074;8.822;2023-07-24T14:22:02;24.90;99.00
6758;DHT22;3416;53.074;8.822;2023-07-24T14:24:29;25.10;98.80
6758;DHT22;3416;53.074;8.822;2023-07-24T14:26:57;25.20;98.60
6758;DHT22;3416;53.074;8.822;2023-07-24T14:29:24;24.80;98.60
6758;DHT22;3416;53.074;8.822;2023-07-24T14:31:51;24.60;99.40
6758;DHT22;3416;53.074;8.822;2023-07-24T14:34:18;24.70;99.30
6758;DHT22;3416;53.074;8.822;2023-07-24T14:36:45;24.90;98.70
6758;DHT22;3416;53.074;8.822;2023-07-24T14:39:12;25.00;98.40
6758;DHT22;3416;53.074;8.822;2023-07-24T14:41:39;24.90;98.40
6758;DHT22;3416;53.074;8.822;2023-07-24T14:44:07;24.70;98.80
6758;DHT22;3416;53.074;8.822;2023-07-24T14:46:35;24.80;98.70
6758;DHT22;3416;53.074;8.822;2023-07-24T14:49:02;24.80;98.00
6758;DHT22;3416;53.074;8.822;2023-07-24T14:51:29;24.70;98.10
6758;DHT22;3416;53.074;8.822;2023-07-24T14:53:55;24.90;98.40
6758;DHT22;3416;53.074;8.822;2023-07-24T14:56:22;25.10;98.30
6758;DHT22;3416;53.074;8.822;2023-07-24T14:58:49;25.30;97.70
6758;DHT22;3416;53.074;8.822;2023-07-24T15:01:17;25.60;96.90
6758;DHT22;3416;53.074;8.822;2023-07-24T15:03:45;25.70;96.40
6758;DHT22;3416;53.074;8.822;2023-07-24T15:06:12;25.70;96.00
6758;DHT22;3416;53.074;8.822;2023-07-24T15:08:39;25.40;96.40
6758;DHT22;3416;53.074;8.822;2023-07-24T15:11:06;25.20;96.50
6758;DHT22;3416;53.074;8.822;2023-07-24T15:13:33;25.20;96.60
6758;DHT22;3416;53.074;8.822;2023-07-24T15:16:00;25.10;96.70
6758;DHT22;3416;53.074;8.822;2023-07-24T15:18:28;25.20;96.40
6758;DHT22;3416;53.074;8.822;2023-07-24T15:20:55;25.30;96.50
6758;DHT22;3416;53.074;8.822;2023-07-24T15:23:22;25.40;96.80
6758;DHT22;3416;53.074;8.822;2023-07-24T15:25:49;25.20;96.70
6758;DHT22;3416;53.074;8.822;2023-07-24T15:28:16;25.50;96.70
6758;DHT22;3416;53.074;8.822;2023-07-24T15:30:43;25.70;96.80
6758;DHT22;3416;53.074;8.822;2023-07-24T15:33:10;26.00;96.20
6758;DHT22;3416;53.074;8.822;2023-07-24T15:35:38;26.00;95.60
6758;DHT22;3416;53.074;8.822;2023-07-24T15:38:05;25.80;96.10
6758;DHT22;3416;53.074;8.822;2023-07-24T15:40:32;25.70;96.00
6758;DHT22;3416;53.074;8.822;2023-07-24T15:42:59;25.70;95.40
6758;DHT22;3416;53.074;8.822;2023-07-24T15:45:27;25.30;95.70
6758;DHT22;3416;53.074;8.822;2023-07-24T15:47:54;25.00;96.30
6758;DHT22;3416;53.074;8.822;2023-07-24T15:50:21;24.60;96.70
6758;DHT22;3416;53.074;8.822;2023-07-24T15:52:49;24.20;97.30
6758;DHT22;3416;53.074;8.822;2023-07-24T15:55:16;23.90;98.00
6758;DHT22;3416;53.074;8.822;2023-07-24T15:57:43;23.60;98.50
6758;DHT22;3416;53.074;8.822;2023-07-24T16:00:10;23.40;99.00
6758;DHT22;3416;53.074;8.822;2023-07-24T16:02:38;23.00;99.30
6758;DHT22;3416;53.074;8.822;2023-07-24T16:05:05;22.70;99.90